sensor_id;sensor_type;location;lat;lon;timestamp;P1;durP1;ratioP1;P2;durP2;ratioP2
15295;SDS011;7749;49.964;7.890;2023-02-01T00:01:17;5.00;;;4.50;;
15295;SDS011;7749;49.964;7.890;2023-02-01T00:03:45;4.80;;;4.40;;
15295;SDS011;7749;49.964;7.890;2023-02-01T00:06:16;8.87;;;4.70;;
15295;SDS011;7749;49.964;7.890;2023-02-01T00:08:44;5.27;;;4.77;;
15295;SDS011;7749;49.964;7.890;2023-02-01T00:11:12;6.67;;;4.63;;
15295;SDS011;7749;49.964;7.890;2023-02-01T00:13:40;5.27;;;4.77;;
15295;SDS011;7749;49.964;7.890;2023-02-01T00:18:45;6.47;;;5.23;;
15295;SDS011;7749;49.964;7.890;2023-02-01T00:21:15;6.53;;;5.40;;
15295;SDS011;7749;49.964;7.890;2023-02-01T00:23:45;7.47;;;5.50;;
15295;SDS011;7749;49.964;7.890;2023-02-01T00:26:34;9.03;;;5.37;;
15295;SDS011;7749;49.964;7.890;2023-02-01T00:29:04;7.60;;;6.00;;
15295;SDS011;7749;49.964;7.890;2023-02-01T00:31:34;5.93;;;5.30;;
15295;SDS011;7749;49.964;7.890;2023-02-01T00:34:02;7.10;;;5.47;;
15295;SDS011;7749;49.964;7.890;2023-02-01T00:36:29;8.00;;;5.63;;
15295;SDS011;7749;49.964;7.890;2023-02-01T00:38:58;7.33;;;6.03;;
15295;SDS011;7749;49.964;7.890;2023-02-01T00:41:25;6.03;;;5.40;;
15295;SDS011;7749;49.964;7.890;2023-02-01T00:43:53;7.17;;;5.87;;
15295;SDS011;7749;49.964;7.890;2023-02-01T00:46:21;6.87;;;6.03;;
15295;SDS011;7749;49.964;7.890;2023-02-01T00:48:49;8.67;;;6.60;;
15295;SDS011;7749;49.964;7.890;2023-02-01T00:51:20;7.00;;;6.30;;
15295;SDS011;7749;49.964;7.890;2023-02-01T00:53:50;10.60;;;7.00;;
15295;SDS011;7749;49.964;7.890;2023-02-01T00:56:17;6.90;;;6.20;;
15295;SDS011;7749;49.964;7.890;2023-02-01T00:58:45;7.43;;;6.17;;
15295;SDS011;7749;49.964;7.890;2023-02-01T01:01:23;9.53;;;7.00;;
15295;SDS011;7749;49.964;7.890;2023-02-01T01:03:54;7.23;;;6.47;;
15295;SDS011;7749;49.964;7.890;2023-02-01T01:06:25;6.90;;;6.20;;
15295;SDS011;7749;49.964;7.890;2023-02-01T01:08:54;7.43;;;6.17;;
15295;SDS011;7749;49.964;7.890;2023-02-01T01:11:25;8.07;;;6.47;;
15295;SDS011;7749;49.964;7.890;2023-02-01T01:13:57;6.83;;;6.17;;
15295;SDS011;7749;49.964;7.890;2023-02-01T01:16:26;7.37;;;6.23;;
15295;SDS011;7749;49.964;7.890;2023-02-01T01:18:55;8.77;;;6.03;;
15295;SDS011;7749;49.964;7.890;2023-02-01T01:21:24;6.93;;;6.13;;
15295;SDS011;7749;49.964;7.890;2023-02-01T01:23:52;7.23;;;6.30;;
15295;SDS011;7749;49.964;7.890;2023-02-01T01:26:25;6.53;;;5.93;;
15295;SDS011;7749;49.964;7.890;2023-02-01T01:28:55;7.20;;;5.97;;
15295;SDS011;7749;49.964;7.890;2023-02-01T01:31:24;6.87;;;5.87;;
15295;SDS011;7749;49.964;7.890;2023-02-01T01:33:55;5.90;;;5.30;;
15295;SDS011;7749;49.964;7.890;2023-02-01T01:36:25;7.13;;;6.10;;
15295;SDS011;7749;49.964;7.890;2023-02-01T01:38:54;6.40;;;5.77;;
15295;SDS011;7749;49.964;7.890;2023-02-01T01:41:23;7.03;;;5.80;;
15295;SDS011;7749;49.964;7.890;2023-02-01T01:46:23;7.97;;;6.40;;
15295;SDS011;7749;49.964;7.890;2023-02-01T01:51:44;7.60;;;6.00;;
15295;SDS011;7749;49.964;7.890;2023-02-01T01:54:26;6.60;;;5.87;;
15295;SDS011;7749;49.964;7.890;2023-02-01T01:57:01;8.43;;;6.57;;
15295;SDS011;7749;49.964;7.890;2023-02-01T01:59:36;7.07;;;5.90;;
15295;SDS011;7749;49.964;7.890;2023-02-01T02:02:07;6.30;;;5.47;;
15295;SDS011;7749;49.964;7.890;2023-02-01T02:04:34;7.83;;;5.83;;
15295;SDS011;7749;49.964;7.890;2023-02-01T02:09:49;9.50;;;6.70;;
15295;SDS011;7749;49.964;7.890;2023-02-01T02:12:27;7.30;;;6.33;;
15295;SDS011;7749;49.964;7.890;2023-02-01T02:14:56;7.43;;;6.60;;
15295;SDS011;7749;49.964;7.890;2023-02-01T02:17:30;8.47;;;6.90;;
15295;SDS011;7749;49.964;7.890;2023-02-01T02:25:42;8.70;;;6.80;;
15295;SDS011;7749;49.964;7.890;2023-02-01T02:28:30;7.70;;;6.80;;
15295;SDS011;7749;49.964;7.890;2023-02-01T02:39:54;7.63;;;6.83;;
15295;SDS011;7749;49.964;7.890;2023-02-01T02:46:01;9.03;;;7.00;;
15295;SDS011;7749;49.964;7.890;2023-02-01T02:48:58;10.77;;;7.10;;
15295;SDS011;7749;49.964;7.890;2023-02-01T02:54:32;6.03;;;5.50;;
15295;SDS011;7749;49.964;7.890;2023-02-01T02:57:25;4.17;;;3.50;;
15295;SDS011;7749;49.964;7.890;2023-02-01T03:00:18;3.20;;;2.93;;
15295;SDS011;7749;49.964;7.890;2023-02-01T03:03:07;5.80;;;3.83;;
15295;SDS011;7749;49.964;7.890;2023-02-01T03:05:54;4.40;;;3.23;;
15295;SDS011;7749;49.964;7.890;2023-02-01T03:08:23;4.30;;;3.20;;
15295;SDS011;7749;49.964;7.890;2023-02-01T03:16:28;6.10;;;3.57;;
15295;SDS011;7749;49.964;7.890;2023-02-01T03:19:00;7.40;;;3.70;;
15295;SDS011;7749;49.964;7.890;2023-02-01T03:24:10;6.50;;;3.30;;
15295;SDS011;7749;49.964;7.890;2023-02-01T03:26:51;6.67;;;3.90;;
15295;SDS011;7749;49.964;7.890;2023-02-01T03:29:27;7.73;;;4.10;;
15295;SDS011;7749;49.964;7.890;2023-02-01T03:32:02;8.60;;;3.87;;
15295;SDS011;7749;49.964;7.890;2023-02-01T03:34:29;7.87;;;3.83;;
15295;SDS011;7749;49.964;7.890;2023-02-01T03:37:01;5.93;;;3.60;;
15295;SDS011;7749;49.964;7.890;2023-02-01T03:39:33;6.43;;;3.20;;
15295;SDS011;7749;49.964;7.890;2023-02-01T03:42:07;6.43;;;3.43;;
15295;SDS011;7749;49.964;7.890;2023-02-01T03:44:41;5.73;;;3.07;;
15295;SDS011;7749;49.964;7.890;2023-02-01T03:47:27;6.20;;;3.60;;
15295;SDS011;7749;49.964;7.890;2023-02-01T03:49:58;5.60;;;3.30;;
15295;SDS011;7749;49.964;7.890;2023-02-01T03:52:33;4.90;;;3.10;;
15295;SDS011;7749;49.964;7.890;2023-02-01T03:55:21;4.70;;;3.60;;
15295;SDS011;7749;49.964;7.890;2023-02-01T04:00:25;6.73;;;3.40;;
15295;SDS011;7749;49.964;7.890;2023-02-01T04:02:54;6.00;;;3.47;;
15295;SDS011;7749;49.964;7.890;2023-02-01T04:05:22;5.03;;;2.90;;
15295;SDS011;7749;49.964;7.890;2023-02-01T04:07:50;6.27;;;3.13;;
15295;SDS011;7749;49.964;7.890;2023-02-01T04:10:17;4.97;;;3.43;;
15295;SDS011;7749;49.964;7.890;2023-02-01T04:12:48;7.77;;;3.50;;
15295;SDS011;7749;49.964;7.890;2023-02-01T04:15:16;13.50;;;6.67;;
15295;SDS011;7749;49.964;7.890;2023-02-01T04:17:44;10.70;;;4.13;;
15295;SDS011;7749;49.964;7.890;2023-02-01T04:20:12;5.20;;;3.23;;
15295;SDS011;7749;49.964;7.890;2023-02-01T04:22:39;6.93;;;4.00;;
15295;SDS011;7749;49.964;7.890;2023-02-01T04:25:07;5.97;;;3.50;;
15295;SDS011;7749;49.964;7.890;2023-02-01T04:27:35;7.63;;;3.37;;
15295;SDS011;7749;49.964;7.890;2023-02-01T04:30:03;8.60;;;3.67;;
15295;SDS011;7749;49.964;7.890;2023-02-01T04:32:33;8.77;;;3.33;;
15295;SDS011;7749;49.964;7.890;2023-02-01T04:35:00;7.13;;;3.67;;
15295;SDS011;7749;49.964;7.890;2023-02-01T04:37:28;9.43;;;3.60;;
15295;SDS011;7749;49.964;7.890;2023-02-01T04:39:56;7.80;;;4.03;;
15295;SDS011;7749;49.964;7.890;2023-02-01T04:42:24;7.97;;;3.37;;
15295;SDS011;7749;49.964;7.890;2023-02-01T04:44:52;10.63;;;3.33;;
15295;SDS011;7749;49.964;7.890;2023-02-01T04:47:19;8.87;;;3.70;;
15295;SDS011;7749;49.964;7.890;2023-02-01T04:49:48;9.43;;;3.57;;
15295;SDS011;7749;49.964;7.890;2023-02-01T04:52:16;12.00;;;3.93;;
15295;SDS011;7749;49.964;7.890;2023-02-01T04:54:44;8.93;;;4.23;;
15295;SDS011;7749;49.964;7.890;2023-02-01T04:57:11;8.90;;;4.03;;
15295;SDS011;7749;49.964;7.890;2023-02-01T04:59:40;7.87;;;3.37;;
15295;SDS011;7749;49.964;7.890;2023-02-01T05:02:08;12.67;;;4.50;;
15295;SDS011;7749;49.964;7.890;2023-02-01T05:04:35;9.23;;;3.20;;
15295;SDS011;7749;49.964;7.890;2023-02-01T05:07:03;7.70;;;3.43;;
15295;SDS011;7749;49.964;7.890;2023-02-01T05:09:34;7.90;;;3.57;;
15295;SDS011;7749;49.964;7.890;2023-02-01T05:12:01;8.47;;;3.57;;
15295;SDS011;7749;49.964;7.890;2023-02-01T05:14:47;10.23;;;3.70;;
15295;SDS011;7749;49.964;7.890;2023-02-01T05:17:16;11.10;;;4.07;;
15295;SDS011;7749;49.964;7.890;2023-02-01T05:19:43;9.37;;;3.60;;
15295;SDS011;7749;49.964;7.890;2023-02-01T05:22:11;12.00;;;4.03;;
15295;SDS011;7749;49.964;7.890;2023-02-01T05:24:41;10.83;;;3.60;;
15295;SDS011;7749;49.964;7.890;2023-02-01T05:27:09;11.03;;;3.23;;
15295;SDS011;7749;49.964;7.890;2023-02-01T05:29:36;10.50;;;3.80;;
15295;SDS011;7749;49.964;7.890;2023-02-01T05:32:04;12.27;;;3.90;;
15295;SDS011;7749;49.964;7.890;2023-02-01T05:34:48;8.70;;;4.10;;
15295;SDS011;7749;49.964;7.890;2023-02-01T05:37:16;13.23;;;3.83;;
15295;SDS011;7749;49.964;7.890;2023-02-01T05:39:44;11.70;;;4.10;;
15295;SDS011;7749;49.964;7.890;2023-02-01T05:42:11;11.93;;;3.60;;
15295;SDS011;7749;49.964;7.890;2023-02-01T05:44:39;9.27;;;3.33;;
15295;SDS011;7749;49.964;7.890;2023-02-01T05:47:09;9.33;;;4.27;;
15295;SDS011;7749;49.964;7.890;2023-02-01T05:49:37;9.63;;;3.90;;
15295;SDS011;7749;49.964;7.890;2023-02-01T05:52:05;12.23;;;4.57;;
15295;SDS011;7749;49.964;7.890;2023-02-01T05:54:33;11.00;;;3.77;;
15295;SDS011;7749;49.964;7.890;2023-02-01T05:57:00;12.00;;;3.17;;
15295;SDS011;7749;49.964;7.890;2023-02-01T05:59:28;8.03;;;3.23;;
15295;SDS011;7749;49.964;7.890;2023-02-01T06:01:58;9.93;;;3.70;;
15295;SDS011;7749;49.964;7.890;2023-02-01T06:04:26;9.27;;;3.60;;
15295;SDS011;7749;49.964;7.890;2023-02-01T06:06:57;7.30;;;3.20;;
15295;SDS011;7749;49.964;7.890;2023-02-01T06:09:24;9.43;;;3.00;;
15295;SDS011;7749;49.964;7.890;2023-02-01T06:11:52;9.97;;;3.23;;
15295;SDS011;7749;49.964;7.890;2023-02-01T06:14:20;6.13;;;3.20;;
15295;SDS011;7749;49.964;7.890;2023-02-01T06:16:47;13.63;;;3.70;;
15295;SDS011;7749;49.964;7.890;2023-02-01T06:19:15;10.67;;;3.50;;
15295;SDS011;7749;49.964;7.890;2023-02-01T06:21:46;9.30;;;3.13;;
15295;SDS011;7749;49.964;7.890;2023-02-01T06:24:13;9.37;;;3.07;;
15295;SDS011;7749;49.964;7.890;2023-02-01T06:26:42;10.00;;;3.73;;
15295;SDS011;7749;49.964;7.890;2023-02-01T06:29:12;9.60;;;3.30;;
15295;SDS011;7749;49.964;7.890;2023-02-01T06:31:40;10.03;;;3.40;;
15295;SDS011;7749;49.964;7.890;2023-02-01T06:34:09;10.47;;;3.67;;
15295;SDS011;7749;49.964;7.890;2023-02-01T06:36:37;8.97;;;3.30;;
15295;SDS011;7749;49.964;7.890;2023-02-01T06:39:05;10.20;;;3.63;;
15295;SDS011;7749;49.964;7.890;2023-02-01T06:41:33;10.30;;;3.50;;
15295;SDS011;7749;49.964;7.890;2023-02-01T06:44:01;8.97;;;4.30;;
15295;SDS011;7749;49.964;7.890;2023-02-01T06:46:29;13.03;;;3.80;;
15295;SDS011;7749;49.964;7.890;2023-02-01T06:48:57;8.87;;;4.10;;
15295;SDS011;7749;49.964;7.890;2023-02-01T06:51:25;13.53;;;4.13;;
15295;SDS011;7749;49.964;7.890;2023-02-01T06:53:55;12.07;;;3.90;;
15295;SDS011;7749;49.964;7.890;2023-02-01T06:56:23;10.50;;;4.37;;
15295;SDS011;7749;49.964;7.890;2023-02-01T06:58:52;13.47;;;4.63;;
15295;SDS011;7749;49.964;7.890;2023-02-01T07:01:23;11.97;;;4.37;;
15295;SDS011;7749;49.964;7.890;2023-02-01T07:03:53;11.53;;;4.13;;
15295;SDS011;7749;49.964;7.890;2023-02-01T07:06:21;11.47;;;4.20;;
15295;SDS011;7749;49.964;7.890;2023-02-01T07:08:49;10.17;;;3.60;;
15295;SDS011;7749;49.964;7.890;2023-02-01T07:11:17;13.97;;;3.90;;
15295;SDS011;7749;49.964;7.890;2023-02-01T07:13:45;16.57;;;5.07;;
15295;SDS011;7749;49.964;7.890;2023-02-01T07:16:14;10.43;;;4.07;;
15295;SDS011;7749;49.964;7.890;2023-02-01T07:18:44;15.60;;;4.13;;
15295;SDS011;7749;49.964;7.890;2023-02-01T07:21:12;14.00;;;4.00;;
15295;SDS011;7749;49.964;7.890;2023-02-01T07:23:40;11.30;;;4.07;;
15295;SDS011;7749;49.964;7.890;2023-02-01T07:26:09;8.33;;;3.80;;
15295;SDS011;7749;49.964;7.890;2023-02-01T07:28:41;12.53;;;3.80;;
15295;SDS011;7749;49.964;7.890;2023-02-01T07:31:16;9.23;;;3.50;;
15295;SDS011;7749;49.964;7.890;2023-02-01T07:33:48;13.73;;;4.07;;
15295;SDS011;7749;49.964;7.890;2023-02-01T07:36:18;12.33;;;4.17;;
15295;SDS011;7749;49.964;7.890;2023-02-01T07:38:47;9.00;;;3.20;;
15295;SDS011;7749;49.964;7.890;2023-02-01T07:41:14;11.43;;;4.10;;
15295;SDS011;7749;49.964;7.890;2023-02-01T07:43:43;14.77;;;4.23;;
15295;SDS011;7749;49.964;7.890;2023-02-01T07:46:11;13.40;;;3.53;;
15295;SDS011;7749;49.964;7.890;2023-02-01T07:48:39;15.23;;;4.03;;
15295;SDS011;7749;49.964;7.890;2023-02-01T07:51:11;13.43;;;3.63;;
15295;SDS011;7749;49.964;7.890;2023-02-01T07:53:41;10.03;;;3.50;;
15295;SDS011;7749;49.964;7.890;2023-02-01T07:56:10;9.63;;;3.70;;
15295;SDS011;7749;49.964;7.890;2023-02-01T07:58:43;11.33;;;3.93;;
15295;SDS011;7749;49.964;7.890;2023-02-01T08:01:18;14.63;;;5.13;;
15295;SDS011;7749;49.964;7.890;2023-02-01T08:03:48;13.37;;;3.60;;
15295;SDS011;7749;49.964;7.890;2023-02-01T08:06:29;21.57;;;14.07;;
15295;SDS011;7749;49.964;7.890;2023-02-01T08:09:01;9.83;;;3.30;;
15295;SDS011;7749;49.964;7.890;2023-02-01T08:11:32;11.60;;;3.33;;
15295;SDS011;7749;49.964;7.890;2023-02-01T08:14:00;15.30;;;4.00;;
15295;SDS011;7749;49.964;7.890;2023-02-01T08:16:28;11.00;;;3.60;;
15295;SDS011;7749;49.964;7.890;2023-02-01T08:18:55;11.43;;;3.40;;
15295;SDS011;7749;49.964;7.890;2023-02-01T08:21:27;13.30;;;3.17;;
15295;SDS011;7749;49.964;7.890;2023-02-01T08:24:05;12.00;;;3.50;;
15295;SDS011;7749;49.964;7.890;2023-02-01T08:26:35;15.40;;;3.63;;
15295;SDS011;7749;49.964;7.890;2023-02-01T08:29:04;17.80;;;4.10;;
15295;SDS011;7749;49.964;7.890;2023-02-01T08:31:33;7.40;;;3.40;;
15295;SDS011;7749;49.964;7.890;2023-02-01T08:34:01;11.73;;;3.27;;
15295;SDS011;7749;49.964;7.890;2023-02-01T08:36:31;10.43;;;3.07;;
15295;SDS011;7749;49.964;7.890;2023-02-01T08:39:02;9.87;;;2.70;;
15295;SDS011;7749;49.964;7.890;2023-02-01T08:41:32;12.20;;;3.13;;
15295;SDS011;7749;49.964;7.890;2023-02-01T08:44:00;11.40;;;2.90;;
15295;SDS011;7749;49.964;7.890;2023-02-01T08:46:28;9.60;;;3.30;;
15295;SDS011;7749;49.964;7.890;2023-02-01T08:48:59;10.93;;;2.60;;
15295;SDS011;7749;49.964;7.890;2023-02-01T08:51:26;9.73;;;2.73;;
15295;SDS011;7749;49.964;7.890;2023-02-01T08:53:54;10.23;;;3.03;;
15295;SDS011;7749;49.964;7.890;2023-02-01T08:56:21;11.07;;;2.93;;
15295;SDS011;7749;49.964;7.890;2023-02-01T08:58:49;9.33;;;3.23;;
15295;SDS011;7749;49.964;7.890;2023-02-01T09:01:17;15.17;;;3.60;;
15295;SDS011;7749;49.964;7.890;2023-02-01T09:03:45;10.43;;;2.77;;
15295;SDS011;7749;49.964;7.890;2023-02-01T09:06:14;8.37;;;3.00;;
15295;SDS011;7749;49.964;7.890;2023-02-01T09:08:43;12.83;;;3.47;;
15295;SDS011;7749;49.964;7.890;2023-02-01T09:11:13;9.13;;;2.63;;
15295;SDS011;7749;49.964;7.890;2023-02-01T09:13:42;12.00;;;3.20;;
15295;SDS011;7749;49.964;7.890;2023-02-01T09:16:10;9.80;;;2.70;;
15295;SDS011;7749;49.964;7.890;2023-02-01T09:18:38;11.20;;;2.90;;
15295;SDS011;7749;49.964;7.890;2023-02-01T09:21:22;10.70;;;3.27;;
15295;SDS011;7749;49.964;7.890;2023-02-01T09:23:51;11.63;;;3.10;;
15295;SDS011;7749;49.964;7.890;2023-02-01T09:26:18;11.97;;;3.13;;
15295;SDS011;7749;49.964;7.890;2023-02-01T09:28:57;13.57;;;3.40;;
15295;SDS011;7749;49.964;7.890;2023-02-01T09:31:25;11.20;;;3.37;;
15295;SDS011;7749;49.964;7.890;2023-02-01T09:33:56;12.67;;;3.77;;
15295;SDS011;7749;49.964;7.890;2023-02-01T09:36:23;11.83;;;3.30;;
15295;SDS011;7749;49.964;7.890;2023-02-01T09:38:52;8.87;;;2.90;;
15295;SDS011;7749;49.964;7.890;2023-02-01T09:41:29;14.43;;;2.93;;
15295;SDS011;7749;49.964;7.890;2023-02-01T09:46:56;8.23;;;3.10;;
15295;SDS011;7749;49.964;7.890;2023-02-01T09:49:26;9.03;;;3.20;;
15295;SDS011;7749;49.964;7.890;2023-02-01T09:52:00;10.63;;;3.13;;
15295;SDS011;7749;49.964;7.890;2023-02-01T09:54:38;11.03;;;2.73;;
15295;SDS011;7749;49.964;7.890;2023-02-01T09:57:55;9.83;;;2.60;;
15295;SDS011;7749;49.964;7.890;2023-02-01T10:00:20;11.90;;;3.10;;
15295;SDS011;7749;49.964;7.890;2023-02-01T10:02:53;9.30;;;2.90;;
15295;SDS011;7749;49.964;7.890;2023-02-01T10:05:28;13.87;;;3.70;;
15295;SDS011;7749;49.964;7.890;2023-02-01T10:19:26;14.27;;;3.47;;
15295;SDS011;7749;49.964;7.890;2023-02-01T10:22:20;7.93;;;3.00;;
15295;SDS011;7749;49.964;7.890;2023-02-01T10:28:22;12.80;;;3.37;;
15295;SDS011;7749;49.964;7.890;2023-02-01T10:30:56;10.23;;;3.00;;
15295;SDS011;7749;49.964;7.890;2023-02-01T10:38:59;7.80;;;2.97;;
15295;SDS011;7749;49.964;7.890;2023-02-01T10:41:31;8.93;;;3.20;;
15295;SDS011;7749;49.964;7.890;2023-02-01T10:44:06;10.87;;;3.37;;
15295;SDS011;7749;49.964;7.890;2023-02-01T10:46:39;10.70;;;2.93;;
15295;SDS011;7749;49.964;7.890;2023-02-01T10:49:10;10.73;;;3.10;;
15295;SDS011;7749;49.964;7.890;2023-02-01T10:51:59;15.03;;;3.70;;
15295;SDS011;7749;49.964;7.890;2023-02-01T10:54:37;10.33;;;2.53;;
15295;SDS011;7749;49.964;7.890;2023-02-01T10:57:09;12.80;;;3.07;;
15295;SDS011;7749;49.964;7.890;2023-02-01T10:59:46;15.40;;;3.00;;
15295;SDS011;7749;49.964;7.890;2023-02-01T11:02:35;9.37;;;2.80;;
15295;SDS011;7749;49.964;7.890;2023-02-01T11:05:03;13.43;;;3.10;;
15295;SDS011;7749;49.964;7.890;2023-02-01T11:07:36;9.17;;;3.30;;
15295;SDS011;7749;49.964;7.890;2023-02-01T11:10:06;13.53;;;3.73;;
15295;SDS011;7749;49.964;7.890;2023-02-01T11:12:53;9.53;;;3.07;;
15295;SDS011;7749;49.964;7.890;2023-02-01T11:15:23;12.70;;;3.50;;
15295;SDS011;7749;49.964;7.890;2023-02-01T11:17:52;14.83;;;4.33;;
15295;SDS011;7749;49.964;7.890;2023-02-01T11:23:00;11.50;;;2.93;;
15295;SDS011;7749;49.964;7.890;2023-02-01T11:25:29;14.43;;;3.60;;
15295;SDS011;7749;49.964;7.890;2023-02-01T11:27:59;10.20;;;3.60;;
15295;SDS011;7749;49.964;7.890;2023-02-01T11:30:32;11.80;;;2.87;;
15295;SDS011;7749;49.964;7.890;2023-02-01T11:33:04;11.23;;;3.33;;
15295;SDS011;7749;49.964;7.890;2023-02-01T11:35:39;11.83;;;3.13;;
15295;SDS011;7749;49.964;7.890;2023-02-01T11:38:13;9.30;;;2.97;;
15295;SDS011;7749;49.964;7.890;2023-02-01T11:40:54;12.73;;;3.30;;
15295;SDS011;7749;49.964;7.890;2023-02-01T11:43:28;11.30;;;2.83;;
15295;SDS011;7749;49.964;7.890;2023-02-01T11:45:59;14.13;;;3.33;;
15295;SDS011;7749;49.964;7.890;2023-02-01T11:48:30;8.53;;;2.63;;
15295;SDS011;7749;49.964;7.890;2023-02-01T11:54:02;12.50;;;3.70;;
15295;SDS011;7749;49.964;7.890;2023-02-01T11:56:51;11.27;;;2.90;;
15295;SDS011;7749;49.964;7.890;2023-02-01T11:59:57;18.30;;;3.40;;
15295;SDS011;7749;49.964;7.890;2023-02-01T12:08:22;10.23;;;3.37;;
15295;SDS011;7749;49.964;7.890;2023-02-01T12:25:05;9.53;;;3.03;;
15295;SDS011;7749;49.964;7.890;2023-02-01T12:27:56;7.81;;;2.13;;
15295;SDS011;7749;49.964;7.890;2023-02-01T12:35:49;10.50;;;3.17;;
15295;SDS011;7749;49.964;7.890;2023-02-01T12:44:24;9.17;;;2.70;;
15295;SDS011;7749;49.964;7.890;2023-02-01T12:46:58;14.10;;;2.63;;
15295;SDS011;7749;49.964;7.890;2023-02-01T12:52:42;17.87;;;2.93;;
15295;SDS011;7749;49.964;7.890;2023-02-01T12:57:59;12.67;;;2.60;;
15295;SDS011;7749;49.964;7.890;2023-02-01T13:00:40;7.93;;;2.33;;
15295;SDS011;7749;49.964;7.890;2023-02-01T13:03:22;8.90;;;2.67;;
15295;SDS011;7749;49.964;7.890;2023-02-01T13:06:15;11.47;;;3.37;;
15295;SDS011;7749;49.964;7.890;2023-02-01T13:11:36;9.80;;;3.83;;
15295;SDS011;7749;49.964;7.890;2023-02-01T13:14:16;13.87;;;3.30;;
15295;SDS011;7749;49.964;7.890;2023-02-01T13:17:12;10.20;;;2.73;;
15295;SDS011;7749;49.964;7.890;2023-02-01T13:19:45;18.10;;;3.75;;
15295;SDS011;7749;49.964;7.890;2023-02-01T13:22:28;18.47;;;2.93;;
15295;SDS011;7749;49.964;7.890;2023-02-01T13:27:36;10.87;;;3.10;;
15295;SDS011;7749;49.964;7.890;2023-02-01T13:30:11;11.77;;;3.67;;
15295;SDS011;7749;49.964;7.890;2023-02-01T13:35:48;7.67;;;2.57;;
15295;SDS011;7749;49.964;7.890;2023-02-01T13:41:02;7.28;;;2.53;;
15295;SDS011;7749;49.964;7.890;2023-02-01T13:43:48;9.17;;;2.50;;
15295;SDS011;7749;49.964;7.890;2023-02-01T13:46:20;13.90;;;3.00;;
15295;SDS011;7749;49.964;7.890;2023-02-01T13:51:38;7.43;;;2.50;;
15295;SDS011;7749;49.964;7.890;2023-02-01T13:57:58;8.60;;;2.37;;
15295;SDS011;7749;49.964;7.890;2023-02-01T14:08:07;6.90;;;2.27;;
15295;SDS011;7749;49.964;7.890;2023-02-01T14:10:54;8.07;;;2.97;;
15295;SDS011;7749;49.964;7.890;2023-02-01T14:34:38;10.90;;;2.97;;
15295;SDS011;7749;49.964;7.890;2023-02-01T14:44:53;9.77;;;2.97;;
15295;SDS011;7749;49.964;7.890;2023-02-01T14:47:26;7.37;;;2.43;;
15295;SDS011;7749;49.964;7.890;2023-02-01T14:49:58;10.67;;;3.33;;
15295;SDS011;7749;49.964;7.890;2023-02-01T14:52:32;8.57;;;2.43;;
15295;SDS011;7749;49.964;7.890;2023-02-01T14:55:05;12.50;;;2.50;;
15295;SDS011;7749;49.964;7.890;2023-02-01T14:57:37;11.83;;;2.67;;
15295;SDS011;7749;49.964;7.890;2023-02-01T15:02:47;10.27;;;2.40;;
15295;SDS011;7749;49.964;7.890;2023-02-01T15:05:24;9.10;;;2.83;;
15295;SDS011;7749;49.964;7.890;2023-02-01T15:07:58;9.10;;;2.23;;
15295;SDS011;7749;49.964;7.890;2023-02-01T15:10:32;10.83;;;2.33;;
15295;SDS011;7749;49.964;7.890;2023-02-01T15:13:19;7.30;;;2.20;;
15295;SDS011;7749;49.964;7.890;2023-02-01T15:16:02;8.07;;;2.17;;
15295;SDS011;7749;49.964;7.890;2023-02-01T15:18:31;8.83;;;2.47;;
15295;SDS011;7749;49.964;7.890;2023-02-01T15:21:00;7.30;;;2.13;;
15295;SDS011;7749;49.964;7.890;2023-02-01T15:24:03;7.20;;;1.93;;
15295;SDS011;7749;49.964;7.890;2023-02-01T15:26:37;8.33;;;2.33;;
15295;SDS011;7749;49.964;7.890;2023-02-01T15:29:08;9.00;;;2.30;;
15295;SDS011;7749;49.964;7.890;2023-02-01T15:31:39;7.43;;;2.30;;
15295;SDS011;7749;49.964;7.890;2023-02-01T15:34:11;10.43;;;2.50;;
15295;SDS011;7749;49.964;7.890;2023-02-01T15:36:42;6.40;;;2.20;;
15295;SDS011;7749;49.964;7.890;2023-02-01T15:39:28;10.63;;;2.30;;
15295;SDS011;7749;49.964;7.890;2023-02-01T15:42:00;9.90;;;2.93;;
15295;SDS011;7749;49.964;7.890;2023-02-01T15:44:38;8.30;;;2.10;;
15295;SDS011;7749;49.964;7.890;2023-02-01T15:47:18;8.60;;;2.30;;
15295;SDS011;7749;49.964;7.890;2023-02-01T15:49:52;10.80;;;2.70;;
15295;SDS011;7749;49.964;7.890;2023-02-01T15:52:26;7.37;;;1.90;;
15295;SDS011;7749;49.964;7.890;2023-02-01T15:55:02;9.87;;;2.20;;
15295;SDS011;7749;49.964;7.890;2023-02-01T15:57:35;9.47;;;2.20;;
15295;SDS011;7749;49.964;7.890;2023-02-01T16:00:07;6.00;;;2.40;;
15295;SDS011;7749;49.964;7.890;2023-02-01T16:03:05;11.53;;;2.57;;
15295;SDS011;7749;49.964;7.890;2023-02-01T16:05:56;9.03;;;2.30;;
15295;SDS011;7749;49.964;7.890;2023-02-01T16:08:26;7.90;;;2.50;;
15295;SDS011;7749;49.964;7.890;2023-02-01T16:11:14;6.97;;;2.60;;
15295;SDS011;7749;49.964;7.890;2023-02-01T16:14:02;7.63;;;2.10;;
15295;SDS011;7749;49.964;7.890;2023-02-01T16:16:30;6.57;;;2.37;;
15295;SDS011;7749;49.964;7.890;2023-02-01T16:18:58;9.50;;;2.40;;
15295;SDS011;7749;49.964;7.890;2023-02-01T16:21:26;11.03;;;3.03;;
15295;SDS011;7749;49.964;7.890;2023-02-01T16:23:56;11.27;;;3.47;;
15295;SDS011;7749;49.964;7.890;2023-02-01T16:26:24;13.00;;;4.47;;
15295;SDS011;7749;49.964;7.890;2023-02-01T16:28:51;8.37;;;3.20;;
15295;SDS011;7749;49.964;7.890;2023-02-01T16:31:21;12.73;;;4.57;;
15295;SDS011;7749;49.964;7.890;2023-02-01T16:33:53;9.03;;;3.07;;
15295;SDS011;7749;49.964;7.890;2023-02-01T16:36:21;14.07;;;3.57;;
15295;SDS011;7749;49.964;7.890;2023-02-01T16:38:49;8.53;;;2.80;;
15295;SDS011;7749;49.964;7.890;2023-02-01T16:41:17;7.83;;;2.50;;
15295;SDS011;7749;49.964;7.890;2023-02-01T16:43:49;9.47;;;2.80;;
15295;SDS011;7749;49.964;7.890;2023-02-01T16:46:19;9.80;;;3.30;;
15295;SDS011;7749;49.964;7.890;2023-02-01T16:48:56;10.40;;;2.57;;
15295;SDS011;7749;49.964;7.890;2023-02-01T16:51:26;7.27;;;2.30;;
15295;SDS011;7749;49.964;7.890;2023-02-01T16:53:58;6.43;;;2.30;;
15295;SDS011;7749;49.964;7.890;2023-02-01T16:56:31;7.73;;;2.10;;
15295;SDS011;7749;49.964;7.890;2023-02-01T16:59:00;6.60;;;2.80;;
15295;SDS011;7749;49.964;7.890;2023-02-01T17:01:28;7.80;;;2.30;;
15295;SDS011;7749;49.964;7.890;2023-02-01T17:03:56;9.23;;;2.20;;
15295;SDS011;7749;49.964;7.890;2023-02-01T17:06:24;11.23;;;2.73;;
15295;SDS011;7749;49.964;7.890;2023-02-01T17:08:55;9.83;;;2.60;;
15295;SDS011;7749;49.964;7.890;2023-02-01T17:11:26;12.60;;;2.63;;
15295;SDS011;7749;49.964;7.890;2023-02-01T17:13:58;8.40;;;2.67;;
15295;SDS011;7749;49.964;7.890;2023-02-01T17:16:36;6.03;;;2.27;;
15295;SDS011;7749;49.964;7.890;2023-02-01T17:19:05;8.07;;;2.73;;
15295;SDS011;7749;49.964;7.890;2023-02-01T17:21:44;7.43;;;2.33;;
15295;SDS011;7749;49.964;7.890;2023-02-01T17:24:19;8.67;;;2.83;;
15295;SDS011;7749;49.964;7.890;2023-02-01T17:26:49;8.10;;;3.07;;
15295;SDS011;7749;49.964;7.890;2023-02-01T17:29:18;10.27;;;2.77;;
15295;SDS011;7749;49.964;7.890;2023-02-01T17:31:50;8.13;;;2.17;;
15295;SDS011;7749;49.964;7.890;2023-02-01T17:34:21;10.63;;;2.93;;
15295;SDS011;7749;49.964;7.890;2023-02-01T17:36:49;13.33;;;3.83;;
15295;SDS011;7749;49.964;7.890;2023-02-01T17:39:17;8.83;;;2.60;;
15295;SDS011;7749;49.964;7.890;2023-02-01T17:42:04;9.53;;;2.33;;
15295;SDS011;7749;49.964;7.890;2023-02-01T17:44:32;9.10;;;3.03;;
15295;SDS011;7749;49.964;7.890;2023-02-01T17:47:00;9.13;;;2.43;;
15295;SDS011;7749;49.964;7.890;2023-02-01T17:49:28;11.07;;;2.70;;
15295;SDS011;7749;49.964;7.890;2023-02-01T17:51:56;8.80;;;2.70;;
15295;SDS011;7749;49.964;7.890;2023-02-01T17:54:24;11.20;;;2.93;;
15295;SDS011;7749;49.964;7.890;2023-02-01T17:56:52;8.80;;;3.30;;
15295;SDS011;7749;49.964;7.890;2023-02-01T17:59:20;11.57;;;3.00;;
15295;SDS011;7749;49.964;7.890;2023-02-01T18:01:50;8.23;;;2.40;;
15295;SDS011;7749;49.964;7.890;2023-02-01T18:04:18;8.03;;;2.67;;
15295;SDS011;7749;49.964;7.890;2023-02-01T18:06:47;12.97;;;2.90;;
15295;SDS011;7749;49.964;7.890;2023-02-01T18:09:18;8.50;;;2.50;;
15295;SDS011;7749;49.964;7.890;2023-02-01T18:11:45;10.00;;;3.40;;